sensor_id;sensor_type;location;lat;lon;timestamp;P1;P2;P0
78063;PMS5003;67429;51.596;-3.264;2023-02-15T00:01:15;67;63;
78063;PMS5003;67429;51.596;-3.264;2023-02-15T00:03:41;80;71;
78063;PMS5003;67429;51.596;-3.264;2023-02-15T00:06:06;76;68;
78063;PMS5003;67429;51.596;-3.264;2023-02-15T00:08:32;79;71;
78063;PMS5003;67429;51.596;-3.264;2023-02-15T00:11:03;77;74;
78063;PMS5003;67429;51.596;-3.264;2023-02-15T00:13:22;68;64;
78063;PMS5003;67429;51.596;-3.264;2023-02-15T00:15:48;70;63;
78063;PMS5003;67429;51.596;-3.264;2023-02-15T00:18:13;70;66;
78063;PMS5003;67429;51.596;-3.264;2023-02-15T00:20:39;71;69;
78063;PMS5003;67429;51.596;-3.264;2023-02-15T00:23:04;73;68;
78063;PMS5003;67429;51.596;-3.264;2023-02-15T00:25:29;68;65;
78063;PMS5003;67429;51.596;-3.264;2023-02-15T00:27:54;79;71;
78063;PMS5003;67429;51.596;-3.264;2023-02-15T00:30:19;73;70;
78063;PMS5003;67429;51.596;-3.264;2023-02-15T00:32:47;71;69;
78063;PMS5003;67429;51.596;-3.264;2023-02-15T00:35:10;91;82;
78063;PMS5003;67429;51.596;-3.264;2023-02-15T00:37:35;75;67;
78063;PMS5003;67429;51.596;-3.264;2023-02-15T00:40:01;88;84;
78063;PMS5003;67429;51.596;-3.264;2023-02-15T00:42:26;88;84;
78063;PMS5003;67429;51.596;-3.264;2023-02-15T00:44:52;94;89;
78063;PMS5003;67429;51.596;-3.264;2023-02-15T00:47:18;83;76;
78063;PMS5003;67429;51.596;-3.264;2023-02-15T00:49:43;78;77;
78063;PMS5003;67429;51.596;-3.264;2023-02-15T00:52:08;79;73;
78063;PMS5003;67429;51.596;-3.264;2023-02-15T00:54:34;81;73;
78063;PMS5003;67429;51.596;-3.264;2023-02-15T00:56:59;83;79;
78063;PMS5003;67429;51.596;-3.264;2023-02-15T00:59:25;85;79;
78063;PMS5003;67429;51.596;-3.264;2023-02-15T01:01:50;89;82;
78063;PMS5003;67429;51.596;-3.264;2023-02-15T01:04:15;84;80;
78063;PMS5003;67429;51.596;-3.264;2023-02-15T01:06:41;80;77;
78063;PMS5003;67429;51.596;-3.264;2023-02-15T01:09:06;80;77;
78063;PMS5003;67429;51.596;-3.264;2023-02-15T01:11:31;81;76;
78063;PMS5003;67429;51.596;-3.264;2023-02-15T01:13:57;79;76;
78063;PMS5003;67429;51.596;-3.264;2023-02-15T01:16:23;86;80;
78063;PMS5003;67429;51.596;-3.264;2023-02-15T01:18:49;96;87;
78063;PMS5003;67429;51.596;-3.264;2023-02-15T01:21:16;91;85;
78063;PMS5003;67429;51.596;-3.264;2023-02-15T01:23:40;77;73;
78063;PMS5003;67429;51.596;-3.264;2023-02-15T01:26:05;83;77;
78063;PMS5003;67429;51.596;-3.264;2023-02-15T01:28:31;75;75;
78063;PMS5003;67429;51.596;-3.264;2023-02-15T01:30:57;89;83;
78063;PMS5003;67429;51.596;-3.264;2023-02-15T01:33:22;80;75;
78063;PMS5003;67429;51.596;-3.264;2023-02-15T01:35:47;80;79;
78063;PMS5003;67429;51.596;-3.264;2023-02-15T01:38:12;84;80;
78063;PMS5003;67429;51.596;-3.264;2023-02-15T01:40:38;87;81;
78063;PMS5003;67429;51.596;-3.264;2023-02-15T01:43:07;82;80;
78063;PMS5003;67429;51.596;-3.264;2023-02-15T01:45:29;85;77;
78063;PMS5003;67429;51.596;-3.264;2023-02-15T01:47:56;82;82;
78063;PMS5003;67429;51.596;-3.264;2023-02-15T01:50:21;89;84;
78063;PMS5003;67429;51.596;-3.264;2023-02-15T01:52:46;91;85;
78063;PMS5003;67429;51.596;-3.264;2023-02-15T01:55:10;90;85;
78063;PMS5003;67429;51.596;-3.264;2023-02-15T01:57:36;81;76;
78063;PMS5003;67429;51.596;-3.264;2023-02-15T02:00:02;91;81;
78063;PMS5003;67429;51.596;-3.264;2023-02-15T02:02:27;91;87;
78063;PMS5003;67429;51.596;-3.264;2023-02-15T02:04:54;80;77;
78063;PMS5003;67429;51.596;-3.264;2023-02-15T02:07:19;88;81;
78063;PMS5003;67429;51.596;-3.264;2023-02-15T02:09:44;88;85;
78063;PMS5003;67429;51.596;-3.264;2023-02-15T02:12:09;90;87;
78063;PMS5003;67429;51.596;-3.264;2023-02-15T02:14:34;92;89;
78063;PMS5003;67429;51.596;-3.264;2023-02-15T02:17:02;85;83;
78063;PMS5003;67429;51.596;-3.264;2023-02-15T02:19:35;85;81;
78063;PMS5003;67429;51.596;-3.264;2023-02-15T02:21:57;92;87;
78063;PMS5003;67429;51.596;-3.264;2023-02-15T02:24:22;97;90;
78063;PMS5003;67429;51.596;-3.264;2023-02-15T02:29:13;85;80;
78063;PMS5003;67429;51.596;-3.264;2023-02-15T02:31:39;89;87;
78063;PMS5003;67429;51.596;-3.264;2023-02-15T02:34:00;87;80;
78063;PMS5003;67429;51.596;-3.264;2023-02-15T02:36:25;86;83;
78063;PMS5003;67429;51.596;-3.264;2023-02-15T02:38:52;98;89;
78063;PMS5003;67429;51.596;-3.264;2023-02-15T02:41:16;98;93;
78063;PMS5003;67429;51.596;-3.264;2023-02-15T02:43:41;92;88;
78063;PMS5003;67429;51.596;-3.264;2023-02-15T02:46:06;97;90;
78063;PMS5003;67429;51.596;-3.264;2023-02-15T02:48:31;87;82;
78063;PMS5003;67429;51.596;-3.264;2023-02-15T02:50:56;92;85;
78063;PMS5003;67429;51.596;-3.264;2023-02-15T02:53:21;97;90;
78063;PMS5003;67429;51.596;-3.264;2023-02-15T02:55:48;85;82;
78063;PMS5003;67429;51.596;-3.264;2023-02-15T02:58:14;98;90;
78063;PMS5003;67429;51.596;-3.264;2023-02-15T03:00:40;89;82;
78063;PMS5003;67429;51.596;-3.264;2023-02-15T03:03:03;93;92;
78063;PMS5003;67429;51.596;-3.264;2023-02-15T03:05:28;96;90;
78063;PMS5003;67429;51.596;-3.264;2023-02-15T03:07:54;84;82;
78063;PMS5003;67429;51.596;-3.264;2023-02-15T03:10:20;94;91;
78063;PMS5003;67429;51.596;-3.264;2023-02-15T03:12:44;94;85;
78063;PMS5003;67429;51.596;-3.264;2023-02-15T03:15:10;91;85;
78063;PMS5003;67429;51.596;-3.264;2023-02-15T03:17:36;98;88;
78063;PMS5003;67429;51.596;-3.264;2023-02-15T03:20:01;112;101;
78063;PMS5003;67429;51.596;-3.264;2023-02-15T03:22:26;92;88;
78063;PMS5003;67429;51.596;-3.264;2023-02-15T03:24:53;105;96;
78063;PMS5003;67429;51.596;-3.264;2023-02-15T03:27:19;92;90;
78063;PMS5003;67429;51.596;-3.264;2023-02-15T03:29:43;91;88;
78063;PMS5003;67429;51.596;-3.264;2023-02-15T03:32:09;90;86;
78063;PMS5003;67429;51.596;-3.264;2023-02-15T03:34:34;100;91;
78063;PMS5003;67429;51.596;-3.264;2023-02-15T03:37:02;101;92;
78063;PMS5003;67429;51.596;-3.264;2023-02-15T03:39:26;101;97;
78063;PMS5003;67429;51.596;-3.264;2023-02-15T03:41:55;89;85;
78063;PMS5003;67429;51.596;-3.264;2023-02-15T03:44:18;98;88;
78063;PMS5003;67429;51.596;-3.264;2023-02-15T03:46:42;87;82;
78063;PMS5003;67429;51.596;-3.264;2023-02-15T03:49:08;104;97;
78063;PMS5003;67429;51.596;-3.264;2023-02-15T03:51:35;97;95;
78063;PMS5003;67429;51.596;-3.264;2023-02-15T03:53:58;109;95;
78063;PMS5003;67429;51.596;-3.264;2023-02-15T03:56:24;112;100;
78063;PMS5003;67429;51.596;-3.264;2023-02-15T03:58:49;107;102;
78063;PMS5003;67429;51.596;-3.264;2023-02-15T04:01:22;94;88;
78063;PMS5003;67429;51.596;-3.264;2023-02-15T04:03:41;98;92;
78063;PMS5003;67429;51.596;-3.264;2023-02-15T04:06:06;88;86;
78063;PMS5003;67429;51.596;-3.264;2023-02-15T04:08:32;97;89;
78063;PMS5003;67429;51.596;-3.264;2023-02-15T04:10:57;98;94;
78063;PMS5003;67429;51.596;-3.264;2023-02-15T04:13:24;102;93;
78063;PMS5003;67429;51.596;-3.264;2023-02-15T04:15:49;112;98;
78063;PMS5003;67429;51.596;-3.264;2023-02-15T04:18:14;100;95;
78063;PMS5003;67429;51.596;-3.264;2023-02-15T04:20:42;104;99;
78063;PMS5003;67429;51.596;-3.264;2023-02-15T04:23:06;102;95;
78063;PMS5003;67429;51.596;-3.264;2023-02-15T04:25:31;103;96;
78063;PMS5003;67429;51.596;-3.264;2023-02-15T04:27:57;109;103;
78063;PMS5003;67429;51.596;-3.264;2023-02-15T04:30:22;116;104;
78063;PMS5003;67429;51.596;-3.264;2023-02-15T04:32:47;100;95;
78063;PMS5003;67429;51.596;-3.264;2023-02-15T04:35:13;102;96;
78063;PMS5003;67429;51.596;-3.264;2023-02-15T04:37:38;92;87;
78063;PMS5003;67429;51.596;-3.264;2023-02-15T04:40:04;99;94;
78063;PMS5003;67429;51.596;-3.264;2023-02-15T04:42:29;105;92;
78063;PMS5003;67429;51.596;-3.264;2023-02-15T04:44:55;91;87;
78063;PMS5003;67429;51.596;-3.264;2023-02-15T04:47:20;99;92;
78063;PMS5003;67429;51.596;-3.264;2023-02-15T04:49:45;118;108;
78063;PMS5003;67429;51.596;-3.264;2023-02-15T04:52:11;102;98;
78063;PMS5003;67429;51.596;-3.264;2023-02-15T04:54:36;99;96;
78063;PMS5003;67429;51.596;-3.264;2023-02-15T04:57:02;103;98;
78063;PMS5003;67429;51.596;-3.264;2023-02-15T04:59:27;98;86;
78063;PMS5003;67429;51.596;-3.264;2023-02-15T05:01:52;107;100;
78063;PMS5003;67429;51.596;-3.264;2023-02-15T05:04:18;102;95;
78063;PMS5003;67429;51.596;-3.264;2023-02-15T05:06:43;115;109;
78063;PMS5003;67429;51.596;-3.264;2023-02-15T05:09:10;98;87;
78063;PMS5003;67429;51.596;-3.264;2023-02-15T05:11:34;105;99;
78063;PMS5003;67429;51.596;-3.264;2023-02-15T05:14:00;96;90;
78063;PMS5003;67429;51.596;-3.264;2023-02-15T05:16:25;117;103;
78063;PMS5003;67429;51.596;-3.264;2023-02-15T05:18:50;118;99;
78063;PMS5003;67429;51.596;-3.264;2023-02-15T05:21:16;100;93;
78063;PMS5003;67429;51.596;-3.264;2023-02-15T05:23:41;115;107;
78063;PMS5003;67429;51.596;-3.264;2023-02-15T05:26:08;100;89;
78063;PMS5003;67429;51.596;-3.264;2023-02-15T05:28:34;110;104;
78063;PMS5003;67429;51.596;-3.264;2023-02-15T05:31:00;107;101;
78063;PMS5003;67429;51.596;-3.264;2023-02-15T05:33:23;94;93;
78063;PMS5003;67429;51.596;-3.264;2023-02-15T05:35:49;100;94;
78063;PMS5003;67429;51.596;-3.264;2023-02-15T05:38:14;111;98;
78063;PMS5003;67429;51.596;-3.264;2023-02-15T05:40:39;104;98;
78063;PMS5003;67429;51.596;-3.264;2023-02-15T05:43:04;112;106;
78063;PMS5003;67429;51.596;-3.264;2023-02-15T05:45:29;104;97;
78063;PMS5003;67429;51.596;-3.264;2023-02-15T05:47:55;118;108;
78063;PMS5003;67429;51.596;-3.264;2023-02-15T05:50:21;106;100;
78063;PMS5003;67429;51.596;-3.264;2023-02-15T05:52:47;106;99;
78063;PMS5003;67429;51.596;-3.264;2023-02-15T05:55:12;105;98;
78063;PMS5003;67429;51.596;-3.264;2023-02-15T05:57:38;114;106;
78063;PMS5003;67429;51.596;-3.264;2023-02-15T06:00:03;99;95;
78063;PMS5003;67429;51.596;-3.264;2023-02-15T06:02:28;108;97;
78063;PMS5003;67429;51.596;-3.264;2023-02-15T06:04:53;117;105;
78063;PMS5003;67429;51.596;-3.264;2023-02-15T06:07:19;104;99;
78063;PMS5003;67429;51.596;-3.264;2023-02-15T06:09:44;109;105;
78063;PMS5003;67429;51.596;-3.264;2023-02-15T06:12:10;104;97;
78063;PMS5003;67429;51.596;-3.264;2023-02-15T06:14:36;121;117;
78063;PMS5003;67429;51.596;-3.264;2023-02-15T06:17:01;99;94;
78063;PMS5003;67429;51.596;-3.264;2023-02-15T06:19:27;101;94;
78063;PMS5003;67429;51.596;-3.264;2023-02-15T06:21:52;100;95;
78063;PMS5003;67429;51.596;-3.264;2023-02-15T06:24:17;105;98;
78063;PMS5003;67429;51.596;-3.264;2023-02-15T06:26:43;99;93;
78063;PMS5003;67429;51.596;-3.264;2023-02-15T06:29:09;102;94;
78063;PMS5003;67429;51.596;-3.264;2023-02-15T06:31:34;103;92;
78063;PMS5003;67429;51.596;-3.264;2023-02-15T06:33:59;110;103;
78063;PMS5003;67429;51.596;-3.264;2023-02-15T06:36:24;109;102;
78063;PMS5003;67429;51.596;-3.264;2023-02-15T06:38:50;108;103;
78063;PMS5003;67429;51.596;-3.264;2023-02-15T06:41:15;111;105;
78063;PMS5003;67429;51.596;-3.264;2023-02-15T06:43:40;107;97;
78063;PMS5003;67429;51.596;-3.264;2023-02-15T06:46:06;106;98;
78063;PMS5003;67429;51.596;-3.264;2023-02-15T06:48:31;102;97;
78063;PMS5003;67429;51.596;-3.264;2023-02-15T06:50:57;96;93;
78063;PMS5003;67429;51.596;-3.264;2023-02-15T06:53:22;114;104;
78063;PMS5003;67429;51.596;-3.264;2023-02-15T06:55:48;106;99;
78063;PMS5003;67429;51.596;-3.264;2023-02-15T06:58:14;109;100;
78063;PMS5003;67429;51.596;-3.264;2023-02-15T07:00:39;124;114;
78063;PMS5003;67429;51.596;-3.264;2023-02-15T07:03:05;122;114;
78063;PMS5003;67429;51.596;-3.264;2023-02-15T07:05:32;138;124;
78063;PMS5003;67429;51.596;-3.264;2023-02-15T07:07:55;116;113;
78063;PMS5003;67429;51.596;-3.264;2023-02-15T07:10:21;113;106;
78063;PMS5003;67429;51.596;-3.264;2023-02-15T07:12:47;108;104;
78063;PMS5003;67429;51.596;-3.264;2023-02-15T07:15:12;103;94;
78063;PMS5003;67429;51.596;-3.264;2023-02-15T07:17:37;106;99;
78063;PMS5003;67429;51.596;-3.264;2023-02-15T07:20:02;125;117;
78063;PMS5003;67429;51.596;-3.264;2023-02-15T07:22:28;121;111;
78063;PMS5003;67429;51.596;-3.264;2023-02-15T07:24:53;113;103;
78063;PMS5003;67429;51.596;-3.264;2023-02-15T07:27:19;103;98;
78063;PMS5003;67429;51.596;-3.264;2023-02-15T07:29:45;102;98;
78063;PMS5003;67429;51.596;-3.264;2023-02-15T07:32:10;109;101;
78063;PMS5003;67429;51.596;-3.264;2023-02-15T07:34:35;114;106;
78063;PMS5003;67429;51.596;-3.264;2023-02-15T07:37:00;112;105;
78063;PMS5003;67429;51.596;-3.264;2023-02-15T07:39:26;107;98;
78063;PMS5003;67429;51.596;-3.264;2023-02-15T07:41:51;96;92;
78063;PMS5003;67429;51.596;-3.264;2023-02-15T07:44:17;109;104;
78063;PMS5003;67429;51.596;-3.264;2023-02-15T07:46:42;108;105;
78063;PMS5003;67429;51.596;-3.264;2023-02-15T07:49:08;108;100;
78063;PMS5003;67429;51.596;-3.264;2023-02-15T07:51:33;102;95;
78063;PMS5003;67429;51.596;-3.264;2023-02-15T07:53:58;112;109;
78063;PMS5003;67429;51.596;-3.264;2023-02-15T07:56:24;103;100;
78063;PMS5003;67429;51.596;-3.264;2023-02-15T07:58:49;142;132;
78063;PMS5003;67429;51.596;-3.264;2023-02-15T08:01:16;114;109;
78063;PMS5003;67429;51.596;-3.264;2023-02-15T08:03:40;124;109;
78063;PMS5003;67429;51.596;-3.264;2023-02-15T08:06:05;139;128;
78063;PMS5003;67429;51.596;-3.264;2023-02-15T08:08:30;126;124;
78063;PMS5003;67429;51.596;-3.264;2023-02-15T08:10:57;119;107;
78063;PMS5003;67429;51.596;-3.264;2023-02-15T08:13:21;109;103;
78063;PMS5003;67429;51.596;-3.264;2023-02-15T08:15:48;102;91;
78063;PMS5003;67429;51.596;-3.264;2023-02-15T08:18:11;107;98;
78063;PMS5003;67429;51.596;-3.264;2023-02-15T08:20:37;99;93;
78063;PMS5003;67429;51.596;-3.264;2023-02-15T08:23:03;90;85;
78063;PMS5003;67429;51.596;-3.264;2023-02-15T08:25:28;107;96;
78063;PMS5003;67429;51.596;-3.264;2023-02-15T08:27:53;100;93;
78063;PMS5003;67429;51.596;-3.264;2023-02-15T08:30:18;112;103;
78063;PMS5003;67429;51.596;-3.264;2023-02-15T08:32:44;132;124;
78063;PMS5003;67429;51.596;-3.264;2023-02-15T08:35:09;127;115;
78063;PMS5003;67429;51.596;-3.264;2023-02-15T08:37:34;111;102;
78063;PMS5003;67429;51.596;-3.264;2023-02-15T08:40:00;106;98;
78063;PMS5003;67429;51.596;-3.264;2023-02-15T08:42:25;93;85;
78063;PMS5003;67429;51.596;-3.264;2023-02-15T08:44:50;105;96;
78063;PMS5003;67429;51.596;-3.264;2023-02-15T08:47:15;100;94;
78063;PMS5003;67429;51.596;-3.264;2023-02-15T08:49:41;84;82;
78063;PMS5003;67429;51.596;-3.264;2023-02-15T08:52:07;101;93;
78063;PMS5003;67429;51.596;-3.264;2023-02-15T08:54:32;101;95;
78063;PMS5003;67429;51.596;-3.264;2023-02-15T08:56:57;98;88;
78063;PMS5003;67429;51.596;-3.264;2023-02-15T08:59:23;95;93;
78063;PMS5003;67429;51.596;-3.264;2023-02-15T09:01:49;104;96;
78063;PMS5003;67429;51.596;-3.264;2023-02-15T09:04:13;95;89;
78063;PMS5003;67429;51.596;-3.264;2023-02-15T09:06:40;108;98;
78063;PMS5003;67429;51.596;-3.264;2023-02-15T09:09:05;98;92;
78063;PMS5003;67429;51.596;-3.264;2023-02-15T09:11:33;101;96;
78063;PMS5003;67429;51.596;-3.264;2023-02-15T09:13:57;105;96;
78063;PMS5003;67429;51.596;-3.264;2023-02-15T09:16:21;96;90;
78063;PMS5003;67429;51.596;-3.264;2023-02-15T09:18:47;94;91;
78063;PMS5003;67429;51.596;-3.264;2023-02-15T09:21:13;94;88;
78063;PMS5003;67429;51.596;-3.264;2023-02-15T09:23:38;114;101;
78063;PMS5003;67429;51.596;-3.264;2023-02-15T09:26:04;111;108;
78063;PMS5003;67429;51.596;-3.264;2023-02-15T09:28:28;118;111;
78063;PMS5003;67429;51.596;-3.264;2023-02-15T09:30:53;114;108;
78063;PMS5003;67429;51.596;-3.264;2023-02-15T09:33:19;110;106;
78063;PMS5003;67429;51.596;-3.264;2023-02-15T09:35:45;101;93;
78063;PMS5003;67429;51.596;-3.264;2023-02-15T09:38:10;97;89;
78063;PMS5003;67429;51.596;-3.264;2023-02-15T09:40:38;113;104;
78063;PMS5003;67429;51.596;-3.264;2023-02-15T09:43:05;94;88;
78063;PMS5003;67429;51.596;-3.264;2023-02-15T09:45:30;97;94;
78063;PMS5003;67429;51.596;-3.264;2023-02-15T09:47:57;99;95;
78063;PMS5003;67429;51.596;-3.264;2023-02-15T09:50:19;114;105;
78063;PMS5003;67429;51.596;-3.264;2023-02-15T09:52:47;92;88;
78063;PMS5003;67429;51.596;-3.264;2023-02-15T09:55:12;92;89;
78063;PMS5003;67429;51.596;-3.264;2023-02-15T09:57:36;85;83;
78063;PMS5003;67429;51.596;-3.264;2023-02-15T10:00:02;81;76;
78063;PMS5003;67429;51.596;-3.264;2023-02-15T10:02:29;67;65;
78063;PMS5003;67429;51.596;-3.264;2023-02-15T10:04:54;76;72;
78063;PMS5003;67429;51.596;-3.264;2023-02-15T10:07:20;72;72;
78063;PMS5003;67429;51.596;-3.264;2023-02-15T10:09:45;81;71;
78063;PMS5003;67429;51.596;-3.264;2023-02-15T10:12:11;69;66;
78063;PMS5003;67429;51.596;-3.264;2023-02-15T10:14:39;67;66;
78063;PMS5003;67429;51.596;-3.264;2023-02-15T10:17:00;65;61;
78063;PMS5003;67429;51.596;-3.264;2023-02-15T10:19:25;71;69;
78063;PMS5003;67429;51.596;-3.264;2023-02-15T10:21:52;67;62;
78063;PMS5003;67429;51.596;-3.264;2023-02-15T10:24:20;64;63;
78063;PMS5003;67429;51.596;-3.264;2023-02-15T10:26:41;67;60;
78063;PMS5003;67429;51.596;-3.264;2023-02-15T10:29:06;72;70;
78063;PMS5003;67429;51.596;-3.264;2023-02-15T10:31:32;66;64;
78063;PMS5003;67429;51.596;-3.264;2023-02-15T10:34:01;69;63;
78063;PMS5003;67429;51.596;-3.264;2023-02-15T10:36:24;69;66;
78063;PMS5003;67429;51.596;-3.264;2023-02-15T10:38:48;68;64;
78063;PMS5003;67429;51.596;-3.264;2023-02-15T10:41:17;62;59;
78063;PMS5003;67429;51.596;-3.264;2023-02-15T10:43:43;67;64;
78063;PMS5003;67429;51.596;-3.264;2023-02-15T10:46:05;66;62;
78063;PMS5003;67429;51.596;-3.264;2023-02-15T10:48:38;71;69;
78063;PMS5003;67429;51.596;-3.264;2023-02-15T10:50:55;74;69;
78063;PMS5003;67429;51.596;-3.264;2023-02-15T10:53:29;76;70;
78063;PMS5003;67429;51.596;-3.264;2023-02-15T10:55:48;67;63;
78063;PMS5003;67429;51.596;-3.264;2023-02-15T10:58:12;65;63;
78063;PMS5003;67429;51.596;-3.264;2023-02-15T11:00:37;73;70;
78063;PMS5003;67429;51.596;-3.264;2023-02-15T11:03:05;67;66;
78063;PMS5003;67429;51.596;-3.264;2023-02-15T11:05:32;64;61;
78063;PMS5003;67429;51.596;-3.264;2023-02-15T11:07:54;59;56;
78063;PMS5003;67429;51.596;-3.264;2023-02-15T11:10:22;61;58;
78063;PMS5003;67429;51.596;-3.264;2023-02-15T11:12:43;67;63;
78063;PMS5003;67429;51.596;-3.264;2023-02-15T11:15:11;77;74;
78063;PMS5003;67429;51.596;-3.264;2023-02-15T11:17:35;67;65;
78063;PMS5003;67429;51.596;-3.264;2023-02-15T11:20:02;74;71;
78063;PMS5003;67429;51.596;-3.264;2023-02-15T11:22:25;68;65;
78063;PMS5003;67429;51.596;-3.264;2023-02-15T11:24:50;60;58;
78063;PMS5003;67429;51.596;-3.264;2023-02-15T11:27:18;70;66;
78063;PMS5003;67429;51.596;-3.264;2023-02-15T11:29:44;74;72;
78063;PMS5003;67429;51.596;-3.264;2023-02-15T11:32:12;64;63;
78063;PMS5003;67429;51.596;-3.264;2023-02-15T11:34:33;65;63;
78063;PMS5003;67429;51.596;-3.264;2023-02-15T11:36:58;59;54;
78063;PMS5003;67429;51.596;-3.264;2023-02-15T11:39:23;56;53;
78063;PMS5003;67429;51.596;-3.264;2023-02-15T11:41:50;57;56;
78063;PMS5003;67429;51.596;-3.264;2023-02-15T11:44:15;53;51;
78063;PMS5003;67429;51.596;-3.264;2023-02-15T11:46:39;56;54;
78063;PMS5003;67429;51.596;-3.264;2023-02-15T11:49:07;51;50;
78063;PMS5003;67429;51.596;-3.264;2023-02-15T11:51:30;54;53;
78063;PMS5003;67429;51.596;-3.264;2023-02-15T11:53:55;56;54;
78063;PMS5003;67429;51.596;-3.264;2023-02-15T11:56:21;57;55;
78063;PMS5003;67429;51.596;-3.264;2023-02-15T11:58:47;52;51;
78063;PMS5003;67429;51.596;-3.264;2023-02-15T12:01:14;46;43;
78063;PMS5003;67429;51.596;-3.264;2023-02-15T12:03:42;57;54;
78063;PMS5003;67429;51.596;-3.264;2023-02-15T12:06:03;51;49;
78063;PMS5003;67429;51.596;-3.264;2023-02-15T12:08:30;42;42;
78063;PMS5003;67429;51.596;-3.264;2023-02-15T12:10:57;51;49;
78063;PMS5003;67429;51.596;-3.264;2023-02-15T12:13:20;49;48;
78063;PMS5003;67429;51.596;-3.264;2023-02-15T12:15:46;53;51;
78063;PMS5003;67429;51.596;-3.264;2023-02-15T12:20:37;53;48;
78063;PMS5003;67429;51.596;-3.264;2023-02-15T12:23:03;57;53;
78063;PMS5003;67429;51.596;-3.264;2023-02-15T12:25:29;50;48;
78063;PMS5003;67429;51.596;-3.264;2023-02-15T12:27:52;50;48;
78063;PMS5003;67429;51.596;-3.264;2023-02-15T12:30:19;53;51;
78063;PMS5003;67429;51.596;-3.264;2023-02-15T12:32:47;41;38;
78063;PMS5003;67429;51.596;-3.264;2023-02-15T12:35:12;41;39;
78063;PMS5003;67429;51.596;-3.264;2023-02-15T12:37:34;44;41;
78063;PMS5003;67429;51.596;-3.264;2023-02-15T12:40:01;44;42;
78063;PMS5003;67429;51.596;-3.264;2023-02-15T12:42:26;35;35;
78063;PMS5003;67429;51.596;-3.264;2023-02-15T12:44:56;33;33;
78063;PMS5003;67429;51.596;-3.264;2023-02-15T12:47:18;41;38;
78063;PMS5003;67429;51.596;-3.264;2023-02-15T12:49:43;39;38;
78063;PMS5003;67429;51.596;-3.264;2023-02-15T12:54:35;40;36;
78063;PMS5003;67429;51.596;-3.264;2023-02-15T12:57:12;38;37;
78063;PMS5003;67429;51.596;-3.264;2023-02-15T12:59:26;37;36;
78063;PMS5003;67429;51.596;-3.264;2023-02-15T13:01:52;35;34;
78063;PMS5003;67429;51.596;-3.264;2023-02-15T13:04:18;38;36;
78063;PMS5003;67429;51.596;-3.264;2023-02-15T13:06:46;36;36;
78063;PMS5003;67429;51.596;-3.264;2023-02-15T13:09:13;34;33;
78063;PMS5003;67429;51.596;-3.264;2023-02-15T13:11:34;38;36;
78063;PMS5003;67429;51.596;-3.264;2023-02-15T13:14:00;36;36;
78063;PMS5003;67429;51.596;-3.264;2023-02-15T13:16:26;42;40;
78063;PMS5003;67429;51.596;-3.264;2023-02-15T13:18:50;40;39;
78063;PMS5003;67429;51.596;-3.264;2023-02-15T13:21:15;39;36;
78063;PMS5003;67429;51.596;-3.264;2023-02-15T13:23:42;37;36;
78063;PMS5003;67429;51.596;-3.264;2023-02-15T13:26:08;36;36;
78063;PMS5003;67429;51.596;-3.264;2023-02-15T13:28:34;38;38;
78063;PMS5003;67429;51.596;-3.264;2023-02-15T13:30:57;41;38;
78063;PMS5003;67429;51.596;-3.264;2023-02-15T13:33:23;34;32;
78063;PMS5003;67429;51.596;-3.264;2023-02-15T13:35:56;34;33;
78063;PMS5003;67429;51.596;-3.264;2023-02-15T13:38:16;37;37;
78063;PMS5003;67429;51.596;-3.264;2023-02-15T13:40:40;36;34;
78063;PMS5003;67429;51.596;-3.264;2023-02-15T13:43:05;40;38;
78063;PMS5003;67429;51.596;-3.264;2023-02-15T13:45:31;40;39;
78063;PMS5003;67429;51.596;-3.264;2023-02-15T13:47:55;32;31;
78063;PMS5003;67429;51.596;-3.264;2023-02-15T13:50:23;43;42;
78063;PMS5003;67429;51.596;-3.264;2023-02-15T13:52:46;40;38;
78063;PMS5003;67429;51.596;-3.264;2023-02-15T13:57:41;39;38;
78063;PMS5003;67429;51.596;-3.264;2023-02-15T14:00:03;38;37;
78063;PMS5003;67429;51.596;-3.264;2023-02-15T14:02:32;49;45;
78063;PMS5003;67429;51.596;-3.264;2023-02-15T14:04:57;46;44;
78063;PMS5003;67429;51.596;-3.264;2023-02-15T14:07:23;43;41;
78063;PMS5003;67429;51.596;-3.264;2023-02-15T14:09:47;50;48;
78063;PMS5003;67429;51.596;-3.264;2023-02-15T14:12:15;46;44;
78063;PMS5003;67429;51.596;-3.264;2023-02-15T14:14:38;46;45;
78063;PMS5003;67429;51.596;-3.264;2023-02-15T14:17:01;45;43;
78063;PMS5003;67429;51.596;-3.264;2023-02-15T14:19:27;51;47;
78063;PMS5003;67429;51.596;-3.264;2023-02-15T14:21:52;41;40;
78063;PMS5003;67429;51.596;-3.264;2023-02-15T14:24:19;41;39;
78063;PMS5003;67429;51.596;-3.264;2023-02-15T14:26:43;47;47;
78063;PMS5003;67429;51.596;-3.264;2023-02-15T14:29:09;51;50;
78063;PMS5003;67429;51.596;-3.264;2023-02-15T14:31:34;50;49;
78063;PMS5003;67429;51.596;-3.264;2023-02-15T14:33:57;49;49;
78063;PMS5003;67429;51.596;-3.264;2023-02-15T14:36:22;51;50;
78063;PMS5003;67429;51.596;-3.264;2023-02-15T14:38:51;49;46;
78063;PMS5003;67429;51.596;-3.264;2023-02-15T14:41:14;51;47;
78063;PMS5003;67429;51.596;-3.264;2023-02-15T14:43:45;44;41;
78063;PMS5003;67429;51.596;-3.264;2023-02-15T14:46:07;43;42;
78063;PMS5003;67429;51.596;-3.264;2023-02-15T14:48:30;50;48;
78063;PMS5003;67429;51.596;-3.264;2023-02-15T14:50:54;46;44;
78063;PMS5003;67429;51.596;-3.264;2023-02-15T14:55:45;34;33;
78063;PMS5003;67429;51.596;-3.264;2023-02-15T14:58:10;33;33;
78063;PMS5003;67429;51.596;-3.264;2023-02-15T15:00:37;28;28;
78063;PMS5003;67429;51.596;-3.264;2023-02-15T15:03:02;24;24;
78063;PMS5003;67429;51.596;-3.264;2023-02-15T15:05:29;26;24;
78063;PMS5003;67429;51.596;-3.264;2023-02-15T15:07:53;21;18;
78063;PMS5003;67429;51.596;-3.264;2023-02-15T15:12:43;12;12;
78063;PMS5003;67429;51.596;-3.264;2023-02-15T15:15:11;15;15;
78063;PMS5003;67429;51.596;-3.264;2023-02-15T15:20:00;9;9;
78063;PMS5003;67429;51.596;-3.264;2023-02-15T15:22:26;9;8;
78063;PMS5003;67429;51.596;-3.264;2023-02-15T15:24:52;8;8;
78063;PMS5003;67429;51.596;-3.264;2023-02-15T15:29:42;8;8;
78063;PMS5003;67429;51.596;-3.264;2023-02-15T15:32:07;8;7;
78063;PMS5003;67429;51.596;-3.264;2023-02-15T15:39:38;2;2;
78063;PMS5003;67429;51.596;-3.264;2023-02-15T15:41:52;2;2;
78063;PMS5003;67429;51.596;-3.264;2023-02-15T15:44:25;2;2;
78063;PMS5003;67429;51.596;-3.264;2023-02-15T15:46:45;3;2;
78063;PMS5003;67429;51.596;-3.264;2023-02-15T15:49:07;3;3;
78063;PMS5003;67429;51.596;-3.264;2023-02-15T15:51:33;1;1;
78063;PMS5003;67429;51.596;-3.264;2023-02-15T15:53:58;2;2;
78063;PMS5003;67429;51.596;-3.264;2023-02-15T15:56:24;4;3;
78063;PMS5003;67429;51.596;-3.264;2023-02-15T15:58:50;4;4;
78063;PMS5003;67429;51.596;-3.264;2023-02-15T16:01:15;3;2;
78063;PMS5003;67429;51.596;-3.264;2023-02-15T16:06:06;1;1;
78063;PMS5003;67429;51.596;-3.264;2023-02-15T16:08:32;3;3;
78063;PMS5003;67429;51.596;-3.264;2023-02-15T16:10:57;4;3;